• Join FlightAware (Why Join?)
  • Login
  • US Flag 
12:56AM EDT


 

Airport Tracker/Info


-or-


 

Live Flight TrackerFlight Track Log ✈ GTI4241 ✈ 23-Feb-2014 ✈ KJFK - KIAB

Flight Track Log - Related Links

Times and Time Zones

All times are in EST time to prevent confusion due to time zone crossing. See the GTI4241 flight status page for this flight to view local times or setup timezone preferences in your user account.

Time Position Orientation Groundspeed Altitude Reporting Facility
EST Latitude Longitude Course Direction KTS MPH feet Rate Location/Type
07:51PM 40.3375 -74.2488 232° Southwest  Level FlightAware Approximate
07:51PM 40.3656 -74.1419 232° Southwest 308 354 12,800  Level FlightAware ADS-B (KWWD)
07:51PM 40.3493 -74.1757 238° Southwest 318 366 14,300 2,520 Climbing FlightAware ADS-B (KPVU)
07:52PM 40.3249 -74.2266 238° Southwest 320 368 15,000 1,500 Climbing FlightAware ADS-B (KWWD)
07:52PM 40.3001 -74.2800 239° Southwest 331 381 15,900 1,020 Climbing FlightAware ADS-B (KWWD)
07:53PM 40.2805 -74.3235 240° Southwest 326 375 16,000 480 Climbing FlightAware ADS-B (KWWD)
07:53PM 40.2635 -74.3630 240° Southwest 324 373 16,300 1,440 Climbing FlightAware ADS-B (KWWD)
07:53PM 40.2395 -74.4146 239° Southwest 331 381 17,300 1,980 Climbing FlightAware ADS-B (KWWD)
07:54PM 40.2352 -74.4251 242° Southwest 333 383 17,500 2,040 Climbing FlightAware ADS-B (KWWD)
07:54PM 40.2201 -74.4703 246° West 343 395 18,300 2,400 Climbing FlightAware ADS-B (KWWD)
07:54PM 40.2122 -74.5351 261° West 340 391 19,800 2,400 Climbing FlightAware ADS-B (KWWD)
07:55PM 40.2124 -74.6194 270° West 351 404 21,200 2,100 Climbing FlightAware ADS-B (KWWD)
07:56PM 40.2124 -74.7062 270° West 353 406 22,600 1,980 Climbing FlightAware ADS-B (KWWD)
07:56PM 40.2121 -74.7683 270° West 355 409 23,600 1,980 Climbing FlightAware ADS-B (KWWD)
07:57PM 40.2114 -74.8329 269° West 356 410 24,600 1,800 Climbing FlightAware ADS-B (KWWD)
07:57PM 40.2108 -74.9196 269° West 362 417 25,700 2,160 Climbing FlightAware ADS-B (KWWD)
07:58PM 40.2105 -74.9886 270° West 349 402 27,200 3,180 Climbing FlightAware ADS-B (KWWD)
07:58PM 40.2100 -75.0095 268° West 340 391 28,000 2,040 Climbing FlightAware ADS-B (KILG)
07:59PM 40.2090 -75.0809 269° West 341 392 28,800 1,260 Climbing FlightAware ADS-B (KILG)
07:59PM 40.2086 -75.1224 269° West 348 400 29,400 960 Climbing FlightAware ADS-B (KILG)
08:00PM 40.2082 -75.2088 270° West 353 406 29,800 1,020 Climbing FlightAware ADS-B (KWWD)
08:00PM 40.2074 -75.2795 269° West 353 406 30,500 900 Climbing FlightAware ADS-B (KWWD)
08:02PM 40.2054 -75.4496 269° West 369 425 31,500 720 Climbing FlightAware ADS-B (KAPG)
08:02PM 40.2046 -75.5171 269° West 375 432 31,900 900 Climbing FlightAware ADS-B (KWWD)
08:04PM 40.2012 -75.7777 269° West 379 436 33,800 900 Climbing FlightAware ADS-B (KILG)
08:05PM 40.2001 -75.8604 269° West 381 438 34,200 600 Climbing FlightAware ADS-B (KWWD)
08:05PM 40.1999 -75.8809 269° West 382 440 34,300 480 Climbing FlightAware ADS-B (KILG)
08:05PM 40.1981 -75.9668 268° West 386 444 34,600 660 Climbing FlightAware ADS-B (KILG)
08:06PM 40.1968 -76.0464 269° West 386 444 35,100 900 Climbing FlightAware ADS-B (KWWD)
08:06PM 40.1960 -76.1135 269° West 382 440 35,600 1,020 Climbing FlightAware ADS-B (KPVU)
08:07PM 40.1956 -76.1343 269° West 380 437 35,800 540 Climbing FlightAware ADS-B (KWWD)
08:07PM 40.1941 -76.2123 269° West 382 440 36,000 180 Climbing FlightAware ADS-B (KWWD)
08:08PM 40.1926 -76.2795 268° West 383 441 36,000  Level FlightAware ADS-B (KILG)
08:08PM 40.1927 -76.2703 89° East 381 438 36,000  Level FlightAware ADS-B (KAPG)
08:09PM 40.1897 -76.4443 269° West 376 433 36,000  Level FlightAware ADS-B (KWWD)
08:09PM 40.1901 -76.4214 88° East 375 432 36,000  Level FlightAware ADS-B (KILG)
08:12PM 40.1797 -76.8745 268° West 377 434 36,000  Level FlightAware ADS-B (KWWD)
08:12PM 40.1793 -76.8927 268° West 377 434 36,000  Level FlightAware ADS-B (KWWD)
08:13PM 40.1771 -76.9817 268° West 377 434 36,000  Level FlightAware ADS-B (KWWD)
08:15PM 40.1699 -77.2622 268° West 377 434 36,000  Level FlightAware ADS-B (KWWD)
08:15PM 40.1674 -77.3511 268° West 379 436 36,000  Level FlightAware ADS-B (KWWD)
08:16PM 40.1644 -77.4586 268° West 379 436 36,000  Level FlightAware ADS-B (KWWD)
08:19PM 40.1541 -77.7893 268° West 379 436 36,000  Level FlightAware ADS-B (KWWD)
08:20PM 40.1503 -77.9044 268° West 382 440 36,000  Level FlightAware ADS-B (KWWD)
08:21PM 40.1458 -78.0331 268° West 380 437 36,000  Level Cleveland Center
08:22PM 40.1339 -78.1958 265° West 379 436 36,000  Level Cleveland Center
08:23PM 40.1092 -78.3331 257° West 384 442 36,000  Level Cleveland Center
08:24PM 40.0856 -78.4683 257° West 385 443 36,000  Level Cleveland Center
08:25PM 40.0600 -78.6039 256° West 385 443 36,000  Level Cleveland Center
08:26PM 40.0342 -78.7392 256° West 385 443 36,000  Level Cleveland Center
08:27PM 40.0028 -78.9036 256° West 387 445 36,000  Level Cleveland Center
08:28PM 39.9806 -79.0197 256° West 389 448 36,000  Level Cleveland Center
08:29PM 39.9494 -79.1850 256° West 390 449 36,000  Level Cleveland Center
08:30PM 39.9239 -79.3219 256° West 390 449 36,000  Level Cleveland Center
08:31PM 39.8969 -79.4572 255° West 389 448 36,000  Level Cleveland Center
08:32PM 39.8694 -79.5933 255° West 389 448 36,000  Level Cleveland Center
08:33PM 39.8431 -79.7281 256° West 388 447 36,000  Level Cleveland Center
08:34PM 39.8169 -79.8619 256° West 385 443 36,000  Level Cleveland Center
08:35PM 39.7900 -79.9942 255° West 383 441 36,000  Level Cleveland Center
08:36PM 39.7628 -80.1269 255° West 381 438 36,000  Level Cleveland Center
08:37PM 39.7314 -80.2864 256° West 380 437 36,000  Level Cleveland Center
08:38PM 39.7033 -80.4192 255° West 380 437 36,000  Level Cleveland Center
08:39PM 39.6761 -80.5508 255° West 380 437 36,000  Level Cleveland Center
08:40PM 39.6583 -80.6397 255° West 380 437 36,000  Level Indianapolis Center
08:41PM 39.6311 -80.7719 255° West 380 437 36,000  Level Indianapolis Center
08:45PM 39.5184 -81.3052 255° West 383 441 36,000  Level FlightAware ADS-B (KPMH)
08:47PM 39.4477 -81.6340 255° West 383 441 36,000  Level FlightAware ADS-B (KPMH)
08:49PM 39.3969 -81.8676 254° West 384 442 36,000  Level FlightAware ADS-B (KPMH)
08:50PM 39.3830 -81.9294 254° West 385 443 36,000  Level FlightAware ADS-B (KPMH)
08:50PM 39.3658 -82.0068 254° West 385 443 36,000  Level FlightAware ADS-B (KPMH)
08:51PM 39.3485 -82.0864 254° West 386 444 36,000  Level FlightAware ADS-B (KPMH)
08:51PM 39.3338 -82.1528 254° West 386 444 36,000  Level FlightAware ADS-B (KPMH)
08:52PM 39.3198 -82.2167 254° West 386 444 36,000  Level FlightAware ADS-B (KPMH)
08:52PM 39.2993 -82.3075 254° West 386 444 36,000  Level FlightAware ADS-B (KPMH)
08:53PM 39.2840 -82.3760 254° West 386 444 36,000  Level FlightAware ADS-B (KPMH)
08:53PM 39.2692 -82.4423 254° West 386 444 36,000  Level FlightAware ADS-B (KPMH)
08:54PM 39.2496 -82.5304 254° West 384 442 36,000  Level FlightAware ADS-B (KPMH)
08:55PM 39.2347 -82.5962 254° West 383 441 36,000  Level FlightAware ADS-B (KPMH)
08:55PM 39.2148 -82.6836 254° West 383 441 36,000  Level FlightAware ADS-B (KPMH)
08:56PM 39.1996 -82.7490 253° West 383 441 36,000  Level FlightAware ADS-B (KPMH)
08:56PM 39.1847 -82.8145 254° West 381 438 36,000  Level FlightAware ADS-B (KPMH)
08:57PM 39.1653 -82.8990 254° West 377 434 36,000  Level FlightAware ADS-B (KPMH)
08:58PM 39.1459 -82.9847 254° West 374 430 36,000  Level FlightAware ADS-B (KPMH)
08:58PM 39.1315 -83.0465 253° West 371 427 36,000  Level FlightAware ADS-B (KPMH)
08:59PM 39.1111 -83.1352 254° West 370 426 36,000  Level FlightAware ADS-B (KPMH)
08:59PM 39.0918 -83.2169 253° West 367 422 36,000  Level FlightAware ADS-B (KPMH)
09:01PM 39.0328 -83.4693 253° West 367 422 36,000  Level FlightAware ADS-B (KPMH)
09:02PM 39.0203 -83.5234 253° West 365 420 36,000  Level FlightAware ADS-B (KPMH)
09:04PM 38.9638 -83.7621 253° West 365 420 36,000  Level FlightAware ADS-B (KPMH)
09:04PM 38.9485 -83.8263 253° West 366 421 36,000  Level FlightAware ADS-B (KPMH)
09:05PM 38.9312 -83.8971 253° West 366 421 36,000  Level FlightAware ADS-B (KCVG)
09:05PM 38.9145 -83.9675 253° West 366 421 36,000  Level FlightAware ADS-B (KPMH)
09:06PM 38.8995 -84.0299 253° West 366 421 36,000  Level FlightAware ADS-B (KPMH)
09:06PM 38.8840 -84.0942 253° West 366 421 36,000  Level FlightAware ADS-B (KPMH)
09:07PM 38.8690 -84.1564 253° West 367 422 36,000  Level FlightAware ADS-B (KBRY)
09:08PM 38.8529 -84.2231 253° West 368 423 36,000  Level FlightAware ADS-B (KCVG)
09:08PM 38.8350 -84.2959 253° West 368 423 36,000  Level FlightAware ADS-B (KPMH)
09:09PM 38.8196 -84.3582 252° West 368 423 36,000  Level FlightAware ADS-B (KCVG)
09:09PM 38.8040 -84.4226 253° West 367 422 36,000  Level FlightAware ADS-B (KPMH)
09:10PM 38.7949 -84.4600 253° West 367 422 36,000  Level FlightAware ADS-B (KCVG)
09:10PM 38.7727 -84.5510 253° West 366 421 36,000  Level FlightAware ADS-B (KCVG)
09:10PM 38.7624 -84.5924 252° West 366 421 36,000  Level FlightAware ADS-B (KCVG)
09:11PM 38.7442 -84.6649 252° West 368 423 36,000  Level FlightAware ADS-B (KCVG)
09:12PM 38.7265 -84.7374 253° West 368 423 36,000  Level FlightAware ADS-B (KCVG)
09:12PM 38.7141 -84.7875 252° West 369 425 36,000  Level FlightAware ADS-B (KPMH)
09:12PM 38.7005 -84.8415 252° West 370 426 36,000  Level FlightAware ADS-B (KCVG)
09:13PM 38.6852 -84.9042 253° West 371 427 36,000  Level FlightAware ADS-B (KPMH)
09:13PM 38.6688 -84.9689 252° West 372 428 36,000  Level FlightAware ADS-B (KCVG)
09:14PM 38.6535 -85.0295 252° West 372 428 36,000  Level FlightAware ADS-B (KCVG)
09:18PM 38.5333 -85.5041 252° West 369 425 36,000  Level FlightAware ADS-B (KEKX)
09:21PM 38.5904 -85.2803 72° East 369 425 36,000  Level FlightAware ADS-B (KPWK)
09:25PM 38.3112 -86.3568 252° West 366 421 36,000  Level FlightAware ADS-B (KPWK)
09:26PM 38.2663 -86.5242 251° West 366 421 36,000  Level FlightAware ADS-B (KEKX)
09:27PM 38.2526 -86.5752 251° West 366 421 36,000  Level FlightAware ADS-B (KBRY)
09:27PM 38.2314 -86.6547 251° West 366 421 36,000  Level FlightAware ADS-B (KPWK)
09:28PM 38.2038 -86.7586 251° West 367 422 36,000  Level FlightAware ADS-B (KPWK)
09:29PM 38.1759 -86.8623 251° West 367 422 36,000  Level FlightAware ADS-B (KPWK)
09:29PM 38.1587 -86.9254 251° West 367 422 36,000  Level FlightAware ADS-B (KPWK)
09:30PM 38.1373 -87.0050 251° West 368 423 36,000  Level FlightAware ADS-B (KPWK)
09:31PM 38.1058 -87.1194 251° West 369 425 36,000  Level FlightAware ADS-B (KPWK)
09:32PM 38.0774 -87.2237 251° West 369 425 36,000  Level FlightAware ADS-B (KPWK)
09:35PM 37.9574 -87.6577 251° West 367 422 36,000  Level FlightAware ADS-B (KPWK)
09:36PM 37.9406 -87.7185 251° West 366 421 36,000  Level FlightAware ADS-B (KPWK)
09:36PM 37.9289 -87.7805 257° West 362 417 36,000  Level FlightAware ADS-B (KPWK)
09:37PM 37.9224 -87.8414 262° West 363 418 36,000  Level FlightAware ADS-B (KPWK)
09:38PM 37.9122 -87.9552 264° West 363 418 36,000  Level FlightAware ADS-B (KPWK)
09:38PM 37.9073 -88.0207 265° West 363 418 36,000  Level FlightAware ADS-B (KPWK)
09:39PM 37.9013 -88.1008 265° West 363 418 36,000  Level FlightAware ADS-B (KPWK)
09:40PM 37.8933 -88.2021 264° West 363 418 36,000  Level FlightAware ADS-B (KPWK)
09:40PM 37.8882 -88.2632 264° West 363 418 36,000  Level FlightAware ADS-B (KPWK)
09:41PM 37.8823 -88.3347 264° West 363 418 36,000  Level FlightAware ADS-B (KPWK)
09:41PM 37.8745 -88.4254 264° West 362 417 36,000  Level FlightAware ADS-B (KPWK)
09:42PM 37.8692 -88.4887 264° West 363 418 36,000  Level FlightAware ADS-B (KPWK)
09:42PM 37.8634 -88.5561 264° West 362 417 36,000  Level FlightAware ADS-B (KPWK)
09:43PM 37.8578 -88.6214 264° West 362 417 36,000  Level FlightAware ADS-B (KPWK)
09:43PM 37.8523 -88.6844 264° West 362 417 36,000  Level FlightAware ADS-B (KPWK)
09:44PM 37.8449 -88.7707 264° West 362 417 36,000  Level FlightAware ADS-B (KPWK)
09:45PM 37.8392 -88.8360 264° West 362 417 36,000  Level FlightAware ADS-B (KPWK)
09:45PM 37.8341 -88.8949 264° West 362 417 36,000  Level FlightAware ADS-B (KPWK)
09:46PM 37.8281 -88.9620 264° West 362 417 36,000  Level FlightAware ADS-B (KPWK)
09:46PM 37.8219 -89.0313 264° West 361 415 36,000  Level FlightAware ADS-B (KPWK)
09:47PM 37.8149 -89.1090 264° West 361 415 36,000  Level FlightAware ADS-B (KPWK)
09:47PM 37.8083 -89.1823 263° West 360 414 36,000  Level FlightAware ADS-B (KPWK)
09:48PM 37.7986 -89.2867 263° West 360 414 36,000  Level Indianapolis Center
09:49PM 37.7847 -89.4381 263° West 360 414 36,000  Level Indianapolis Center
09:51PM 37.7697 -89.6003 263° West 362 417 36,000  Level Kansas City Center
09:52PM 37.7581 -89.7244 263° West 359 413 36,000  Level Kansas City Center
09:53PM 37.7464 -89.8492 263° West 359 413 36,000  Level Kansas City Center
09:54PM 37.7344 -89.9728 263° West 359 413 36,000  Level Kansas City Center
09:55PM 37.7219 -90.0964 263° West 359 413 36,000  Level Kansas City Center
09:56PM 37.7061 -90.2469 262° West 358 412 36,000  Level Kansas City Center
09:57PM 37.6939 -90.3736 263° West 359 413 36,000  Level Kansas City Center
09:58PM 37.6819 -90.4975 263° West 359 413 36,000  Level Kansas City Center
09:59PM 37.6681 -90.6228 262° West 359 413 36,000  Level Kansas City Center
10:00PM 37.6553 -90.7494 263° West 361 415 36,000  Level Kansas City Center
10:01PM 37.6417 -90.8753 262° West 361 415 36,000  Level Kansas City Center
10:02PM 37.6289 -91.0000 263° West 361 415 36,000  Level Kansas City Center
10:03PM 37.6139 -91.1361 262° West 363 418 36,000  Level Kansas City Center
10:04PM 37.5997 -91.2636 262° West 363 418 36,000  Level Kansas City Center
10:05PM 37.5850 -91.3892 262° West 363 418 36,000  Level Kansas City Center
10:06PM 37.5714 -91.5306 263° West 363 418 36,000  Level Kansas City Center
10:07PM 37.5581 -91.6408 261° West 361 415 36,000  Level Kansas City Center
10:08PM 37.5436 -91.7686 262° West 362 417 36,000  Level Kansas City Center
10:09PM 37.5286 -91.9031 262° West 361 415 36,000  Level Kansas City Center
10:10PM 37.5156 -92.0181 262° West 360 414 36,000  Level Kansas City Center
10:11PM 37.5017 -92.1422 262° West 360 414 36,000  Level Kansas City Center
10:12PM 37.4831 -92.2928 261° West 359 413 36,000  Level Kansas City Center
10:13PM 37.4697 -92.4178 262° West 359 413 36,000  Level Kansas City Center
10:14PM 37.4542 -92.5422 261° West 359 413 36,000  Level Kansas City Center
10:15PM 37.4394 -92.6669 262° West 359 413 36,000  Level Kansas City Center
10:16PM 37.4233 -92.7903 261° West 358 412 36,000  Level Kansas City Center
10:17PM 37.4083 -92.9119 261° West 355 409 36,000  Level Kansas City Center
10:18PM 37.3922 -93.0353 261° West 355 409 36,000  Level Kansas City Center
10:19PM 37.3778 -93.1589 262° West 355 409 36,000  Level Kansas City Center
10:21PM 37.3622 -93.2803 261° West 355 409 36,000  Level Kansas City Center
10:22PM 37.3653 -93.4028 272° West 353 406 36,000  Level Kansas City Center
10:23PM 37.3800 -93.5258 279° West 357 411 36,000  Level Kansas City Center
10:24PM 37.3944 -93.6478 279° West 355 409 36,000  Level Kansas City Center
10:25PM 37.4119 -93.7711 280° West 354 407 36,000  Level Kansas City Center
10:26PM 37.4269 -93.8942 279° West 354 407 36,000  Level Kansas City Center
10:27PM 37.4428 -94.0172 279° West 354 407 36,000  Level Kansas City Center
10:28PM 37.4569 -94.1614 277° West 355 409 36,000  Level Kansas City Center
10:29PM 37.4625 -94.2858 273° West 356 410 36,000  Level Kansas City Center
10:30PM 37.4717 -94.4094 275° West 356 410 36,000 -480 Level Kansas City Center
10:31PM 37.4797 -94.5342 275° West 356 410 35,100 -1,080 Descending Kansas City Center
10:32PM 37.4881 -94.6583 275° West 356 410 33,900 -1,200 Descending Kansas City Center
10:33PM 37.4967 -94.7847 275° West 357 411 32,600 -960 Descending Kansas City Center
10:34PM 37.5033 -94.9125 274° West 361 415 32,000 -300 Descending Kansas City Center
10:35PM 37.5111 -95.0406 274° West 363 418 32,000  Level Kansas City Center
10:36PM 37.5189 -95.1689 274° West 367 422 32,000 -300 Level Kansas City Center
10:37PM 37.5269 -95.2950 275° West 367 422 31,400 -1,140 Descending Kansas City Center
10:38PM 37.5333 -95.4172 274° West 360 414 29,700 -1,680 Descending Kansas City Center
10:39PM 37.5417 -95.5653 274° West 356 410 28,000 -1,800 Descending Kansas City Center
10:40PM 37.5481 -95.6867 274° West 355 409 26,000 -1,860 Descending Kansas City Center
10:41PM 37.5542 -95.8061 274° West 348 400 24,300 -1,680 Descending Kansas City Center
10:42PM 37.5600 -95.9236 274° West 342 394 22,700 -1,440 Descending Kansas City Center
10:43PM 37.5656 -96.0392 274° West 333 383 21,300 -1,380 Descending Kansas City Center
10:44PM 37.5708 -96.1517 273° West 329 379 19,900 -1,440 Descending Kansas City Center
10:45PM 37.5756 -96.2631 273° West 323 372 18,500 -1,200 Descending Kansas City Center
10:46PM 37.5806 -96.3731 273° West 318 366 17,500 -1,560 Descending Kansas City Center
10:47PM 37.5875 -96.4883 274° West 313 360 15,300 -2,280 Descending Kansas City Center
10:47PM 37.5878 -96.5164 271° West 312 359 14,700 -2,220 Descending Kansas City Center
10:47PM 37.5886 -96.5242 278° West 311 358 14,600 -2,100 Descending Kansas City Center
10:48PM 37.5917 -96.5947 273° West 310 357 13,100 -2,400 Descending Kansas City Center
10:48PM 37.5942 -96.6369 274° West 302 348 12,200 -2,400 Descending Kansas City Center
10:49PM 37.5783 -96.6967 252° West 305 351 10,600 -1,980 Descending Kansas City Center
10:49PM 37.5622 -96.7347 242° Southwest 305 351 10,200 -540 Descending Kansas City Center
10:50PM 37.5433 -96.7881 246° West 297 342 10,100 -660 Descending Kansas City Center
10:50PM 37.5311 -96.8192 244° Southwest 260 299 9,500 -1,560 Descending Kansas City Center
10:51PM 37.5189 -96.8683 253° West 253 291 8,500 -1,740 Descending Kansas City Center
10:51PM 37.5081 -96.9019 248° West 243 280 7,900 -1,500 Descending Kansas City Center
10:52PM 37.4953 -96.9503 252° West 250 288 7,000 -1,620 Descending Kansas City Center
10:52PM 37.4869 -96.9844 253° West 249 287 6,300 -1,800 Descending Kansas City Center
10:53PM 37.4769 -97.0347 256° West 250 288 5,200 -1,740 Descending Kansas City Center
10:53PM 37.4664 -97.0722 250° West 256 295 4,500 -900 Descending Kansas City Center
10:54PM 37.4481 -97.1622 256° West 276 318 4,000 -300 Descending Kansas City Center
10:55PM 37.4375 -97.2139 256° West 261 300 4,000  Level Kansas City Center
10:55PM 37.4353 -97.2433 265° West 222 255 4,000 -780 Level Kansas City Center
10:56PM 37.4378 -97.2856 274° West 232 267 3,300 -960 Descending Kansas City Center
10:56PM 37.4478 -97.3072 300° West 184 212 3,100 -300 Descending Kansas City Center
10:57PM 37.4769 -97.3100 356° North 201 231 3,000  Descending Kansas City Center
10:57PM 37.4981 -97.3047 11° North 163 188 3,100 -120 Climbing Kansas City Center
10:58PM 37.5314 -97.2942 14° North 178 205 2,900 -300 Descending Kansas City Center
10:58PM 37.5431 -97.2925 North 162 186 2,800 -840 Descending Kansas City Center
10:59PM 37.5733 -97.2828 14° North 166 191 2,100 -840 Descending Kansas City Center
10:59PM 37.5819 -97.2811 North 142 163 2,000 -300 Descending Kansas City Center
11:00PM 37.6108 -97.2725 13° North 161 185 1,800 -300 Descending Kansas City Center